createdAt,value
2018-09-22T00:01:50.916Z,15.40
2018-09-22T00:04:19.331Z,15.30
2018-09-22T00:06:47.685Z,15.40
2018-09-22T00:09:16.140Z,15.40
2018-09-22T00:11:44.496Z,15.40
2018-09-22T00:14:12.957Z,15.30
2018-09-22T00:16:42.159Z,15.40
2018-09-22T00:19:10.581Z,15.30
2018-09-22T00:21:38.971Z,15.40
2018-09-22T00:24:07.419Z,15.30
2018-09-22T00:26:36.288Z,15.30
2018-09-22T00:29:05.188Z,15.30
2018-09-22T00:31:33.628Z,15.30
2018-09-22T00:34:01.929Z,15.30
2018-09-22T00:36:30.362Z,15.30
2018-09-22T00:38:58.689Z,15.30
2018-09-22T00:41:27.041Z,15.30
2018-09-22T00:43:56.101Z,15.40
2018-09-22T00:46:24.501Z,15.30
2018-09-22T00:48:52.993Z,15.30
2018-09-22T00:51:21.380Z,15.30
2018-09-22T00:53:49.763Z,15.30
2018-09-22T00:56:18.781Z,15.30
2018-09-22T00:58:47.191Z,15.40
2018-09-22T01:01:15.666Z,15.30
2018-09-22T01:03:47.588Z,15.30
2018-09-22T01:06:20.829Z,15.30
2018-09-22T01:08:49.922Z,15.30
2018-09-22T01:11:18.337Z,15.30
2018-09-22T01:13:46.712Z,15.30
2018-09-22T01:16:15.052Z,15.30
2018-09-22T01:18:43.434Z,15.30
2018-09-22T01:21:11.858Z,15.30
2018-09-22T01:23:40.240Z,15.30
2018-09-22T01:26:08.580Z,15.30
2018-09-22T01:28:37.013Z,15.30
2018-09-22T01:31:05.440Z,15.30
2018-09-22T01:33:33.788Z,15.30
2018-09-22T01:36:02.166Z,15.30
2018-09-22T01:38:31.037Z,15.30
2018-09-22T01:40:59.700Z,15.30
2018-09-22T01:43:27.984Z,15.30
2018-09-22T01:45:56.321Z,15.30
2018-09-22T01:48:24.699Z,15.30
2018-09-22T01:50:53.069Z,15.20
2018-09-22T01:53:21.674Z,15.30
2018-09-22T01:55:50.824Z,15.20
2018-09-22T01:58:19.697Z,15.20
2018-09-22T02:00:48.048Z,15.20
2018-09-22T02:03:16.467Z,15.20
2018-09-22T02:05:45.182Z,15.20
2018-09-22T02:08:13.593Z,15.20
2018-09-22T02:10:42.008Z,15.20
2018-09-22T02:13:10.382Z,15.20
2018-09-22T02:15:38.805Z,15.20
2018-09-22T02:18:07.137Z,15.20
2018-09-22T02:20:35.500Z,15.20
2018-09-22T02:23:03.929Z,15.20
2018-09-22T02:25:32.403Z,15.20
2018-09-22T02:28:00.778Z,15.20
2018-09-22T02:30:29.375Z,15.20
2018-09-22T02:32:57.821Z,15.20
2018-09-22T02:35:26.193Z,15.20
2018-09-22T02:37:54.549Z,15.20
2018-09-22T02:40:23.067Z,15.10
2018-09-22T02:42:51.830Z,15.10
2018-09-22T02:45:20.225Z,15.10
2018-09-22T02:47:49.027Z,15.10
2018-09-22T02:50:17.334Z,15.10
2018-09-22T02:52:45.637Z,15.10
2018-09-22T02:55:14.318Z,15.10
2018-09-22T02:57:42.829Z,15.10
2018-09-22T03:00:11.250Z,15.10
2018-09-22T03:02:39.701Z,15.10
2018-09-22T03:05:08.032Z,15.10
2018-09-22T03:07:36.551Z,15.10
2018-09-22T03:10:04.956Z,15.10
2018-09-22T03:12:33.456Z,15.00
2018-09-22T03:15:02.112Z,15.10
2018-09-22T03:17:30.448Z,15.10
2018-09-22T03:19:59.134Z,15.10
2018-09-22T03:22:27.543Z,15.00
2018-09-22T03:24:56.111Z,15.10
2018-09-22T03:27:24.449Z,15.00
2018-09-22T03:29:52.890Z,15.00
2018-09-22T03:32:21.398Z,15.00
2018-09-22T03:34:50.563Z,15.00
2018-09-22T03:37:18.945Z,15.00
2018-09-22T03:39:47.421Z,15.00
2018-09-22T03:42:15.728Z,15.00
2018-09-22T03:44:44.149Z,15.00
2018-09-22T03:47:12.527Z,15.00
2018-09-22T03:49:40.854Z,15.00
2018-09-22T03:52:09.263Z,15.00
2018-09-22T03:54:37.609Z,15.00
2018-09-22T03:57:06.346Z,15.00
2018-09-22T03:59:34.731Z,15.00
2018-09-22T04:02:03.205Z,15.00
2018-09-22T04:04:31.651Z,15.00
2018-09-22T04:07:00.004Z,15.00
2018-09-22T04:09:28.465Z,15.00
2018-09-22T04:11:56.835Z,15.00
2018-09-22T04:14:25.267Z,15.00
2018-09-22T04:16:53.685Z,15.00
2018-09-22T04:19:22.100Z,15.00
2018-09-22T04:21:50.666Z,14.90
2018-09-22T04:24:19.939Z,15.00
2018-09-22T04:26:50.353Z,14.90
2018-09-22T04:29:21.516Z,15.00
2018-09-22T04:31:50.271Z,15.00
2018-09-22T04:34:19.541Z,14.90
2018-09-22T04:36:47.872Z,15.00
2018-09-22T04:39:16.401Z,15.00
2018-09-22T04:41:45.972Z,15.00
2018-09-22T04:44:14.417Z,15.00
2018-09-22T04:46:42.745Z,15.00
2018-09-22T04:49:11.102Z,15.00
2018-09-22T04:51:39.481Z,15.00
2018-09-22T04:54:07.906Z,15.00
2018-09-22T04:56:36.227Z,15.00
2018-09-22T04:59:04.925Z,15.00
2018-09-22T05:01:33.407Z,15.00
2018-09-22T05:04:01.703Z,15.00
2018-09-22T05:06:30.035Z,14.90
2018-09-22T05:08:58.426Z,15.00
2018-09-22T05:11:26.892Z,15.00
2018-09-22T05:13:55.264Z,14.90
2018-09-22T05:16:23.620Z,14.90
2018-09-22T05:18:52.206Z,14.90
2018-09-22T05:21:20.606Z,14.90
2018-09-22T05:23:49.018Z,14.90
2018-09-22T05:26:17.397Z,14.90
2018-09-22T05:28:45.881Z,14.90
2018-09-22T05:31:14.635Z,14.90
2018-09-22T05:33:43.088Z,14.90
2018-09-22T05:36:11.541Z,14.90
2018-09-22T05:38:40.187Z,14.90
2018-09-22T05:41:08.591Z,14.90
2018-09-22T05:43:37.218Z,14.90
2018-09-22T05:46:05.835Z,14.90
2018-09-22T05:48:34.212Z,14.90
2018-09-22T05:51:03.345Z,14.90
2018-09-22T05:53:31.857Z,14.90
2018-09-22T05:56:00.296Z,14.90
2018-09-22T05:58:28.688Z,14.90
2018-09-22T06:00:57.045Z,14.90
2018-09-22T06:03:25.479Z,14.90
2018-09-22T06:05:53.991Z,14.90
2018-09-22T06:08:22.517Z,14.90
2018-09-22T06:10:52.420Z,14.90
2018-09-22T06:13:20.921Z,14.90
2018-09-22T06:15:49.443Z,14.90
2018-09-22T06:18:17.808Z,14.90
2018-09-22T06:20:46.131Z,14.90
2018-09-22T06:23:14.680Z,14.90
2018-09-22T06:25:43.055Z,14.90
2018-09-22T06:28:11.457Z,14.90
2018-09-22T06:30:39.818Z,14.90
2018-09-22T06:33:08.255Z,15.00
2018-09-22T06:35:36.614Z,15.00
2018-09-22T06:38:05.078Z,15.00
2018-09-22T06:40:33.528Z,15.00
2018-09-22T06:43:02.002Z,15.00
2018-09-22T06:45:30.417Z,15.00
2018-09-22T06:47:58.738Z,15.10
2018-09-22T06:50:27.259Z,15.10
2018-09-22T06:52:55.652Z,15.10
2018-09-22T06:55:27.177Z,15.10
2018-09-22T06:57:55.918Z,15.10
2018-09-22T07:00:26.734Z,15.10
2018-09-22T07:02:55.344Z,15.10
2018-09-22T07:05:23.800Z,15.20
2018-09-22T07:07:52.313Z,15.20
2018-09-22T07:10:20.699Z,15.10
2018-09-22T07:12:49.103Z,15.20
2018-09-22T07:15:17.662Z,15.20
2018-09-22T07:17:46.118Z,15.30
2018-09-22T07:20:24.832Z,15.30
2018-09-22T07:22:58.695Z,15.30
2018-09-22T07:25:28.086Z,15.30
2018-09-22T07:28:07.042Z,15.40
2018-09-22T07:30:36.953Z,15.40
2018-09-22T07:33:07.940Z,15.50
2018-09-22T07:35:36.653Z,15.50
2018-09-22T07:38:07.662Z,15.50
2018-09-22T07:40:36.116Z,15.50
2018-09-22T07:43:06.512Z,15.60
2018-09-22T07:45:35.160Z,15.60
2018-09-22T07:48:03.642Z,15.60
2018-09-22T07:53:18.071Z,15.70
2018-09-22T07:55:46.589Z,15.70
2018-09-22T07:58:15.243Z,15.70
2018-09-22T08:00:43.725Z,15.70
2018-09-22T08:03:12.197Z,15.70
2018-09-22T08:05:40.524Z,15.70
2018-09-22T08:08:10.051Z,15.80
2018-09-22T08:10:38.513Z,15.80
2018-09-22T08:13:07.121Z,15.80
2018-09-22T08:15:35.580Z,15.80
2018-09-22T08:18:03.983Z,15.90
2018-09-22T08:20:32.352Z,15.90
2018-09-22T08:23:00.901Z,15.90
2018-09-22T08:25:29.314Z,15.90
2018-09-22T08:27:57.896Z,16.00
2018-09-22T08:30:26.720Z,16.00
2018-09-22T08:32:55.157Z,16.10
2018-09-22T08:35:23.685Z,16.10
2018-09-22T08:37:52.224Z,16.10
2018-09-22T08:40:22.114Z,16.20
2018-09-22T08:42:52.278Z,16.20
2018-09-22T08:45:21.225Z,16.20
2018-09-22T08:47:54.121Z,16.30
2018-09-22T08:50:37.395Z,16.30
2018-09-22T08:53:08.074Z,16.30
2018-09-22T08:55:36.956Z,16.30
2018-09-22T08:58:07.421Z,16.40
2018-09-22T09:00:37.900Z,16.40
2018-09-22T09:03:06.636Z,16.40
2018-09-22T09:18:44.057Z,16.50
2018-09-22T09:21:14.822Z,16.60
2018-09-22T09:23:48.522Z,16.60
2018-09-22T09:26:21.657Z,16.60
2018-09-22T09:28:52.032Z,16.70
2018-09-22T09:31:26.634Z,16.70
2018-09-22T09:33:58.124Z,16.70
2018-09-22T09:36:32.184Z,16.80
2018-09-22T09:39:03.114Z,16.80
2018-09-22T09:41:33.671Z,16.80
2018-09-22T09:44:02.739Z,16.90
2018-09-22T09:46:36.430Z,16.90
2018-09-22T09:49:12.041Z,16.90
2018-09-22T09:51:43.211Z,16.90
2018-09-22T09:54:14.420Z,16.90
2018-09-22T09:56:43.721Z,16.90
2018-09-22T09:59:12.295Z,17.00
2018-09-22T10:01:42.059Z,17.00
2018-09-22T10:04:14.742Z,17.00
2018-09-22T10:06:43.147Z,17.10
2018-09-22T10:09:14.349Z,17.10
2018-09-22T10:11:44.120Z,17.10
2018-09-22T10:14:12.784Z,17.10
2018-09-22T10:16:41.867Z,17.20
2018-09-22T10:19:11.920Z,17.20
2018-09-22T10:21:40.520Z,17.20
2018-09-22T10:24:10.411Z,17.20
2018-09-22T10:26:39.218Z,17.20
2018-09-22T10:29:12.814Z,17.30
2018-09-22T10:31:41.609Z,17.30
2018-09-22T10:34:10.951Z,17.30
2018-09-22T10:36:40.404Z,17.30
2018-09-22T10:39:13.732Z,17.40
2018-09-22T10:41:44.889Z,17.40
2018-09-22T10:44:13.568Z,17.40
2018-09-22T10:46:42.159Z,17.50
2018-09-22T10:49:11.254Z,17.50
2018-09-22T10:51:41.049Z,17.50
2018-09-22T10:54:09.830Z,17.50
2018-09-22T10:56:39.828Z,17.50
2018-09-22T10:59:08.246Z,17.50
2018-09-22T11:01:36.876Z,17.50
2018-09-22T11:04:05.449Z,17.40
2018-09-22T11:06:37.949Z,17.40
2018-09-22T11:09:08.109Z,17.30
2018-09-22T11:11:37.681Z,17.30
2018-09-22T11:14:06.929Z,17.30
2018-09-22T11:16:36.558Z,17.20
2018-09-22T11:19:06.389Z,17.20
2018-09-22T11:21:36.370Z,17.10
2018-09-22T11:24:11.024Z,17.10
2018-09-22T11:26:39.820Z,17.10
2018-09-22T11:29:09.915Z,17.10
2018-09-22T11:31:43.413Z,17.10
2018-09-22T11:34:12.606Z,17.10
2018-09-22T11:36:41.438Z,17.00
2018-09-22T11:39:12.047Z,17.00
2018-09-22T11:41:40.938Z,17.00
2018-09-22T11:44:10.958Z,17.00
2018-09-22T11:46:39.483Z,17.00
2018-09-22T11:49:12.478Z,17.00
2018-09-22T11:51:43.913Z,16.90
2018-09-22T11:54:15.906Z,16.90
2018-09-22T11:56:44.919Z,16.90
2018-09-22T12:02:21.119Z,16.90
2018-09-22T12:04:49.873Z,16.80
2018-09-22T12:07:19.255Z,16.80
2018-09-22T12:09:49.102Z,16.80
2018-09-22T12:12:18.374Z,16.80
2018-09-22T12:14:48.013Z,16.70
2018-09-22T12:17:22.582Z,16.70
2018-09-22T12:19:51.681Z,16.70
2018-09-22T12:22:22.746Z,16.60
2018-09-22T12:24:51.236Z,16.60
2018-09-22T12:27:19.649Z,16.60
2018-09-22T12:29:48.089Z,16.60
2018-09-22T12:32:16.673Z,16.50
2018-09-22T12:34:45.242Z,16.50
2018-09-22T12:37:13.745Z,16.50
2018-09-22T12:39:42.355Z,16.50
2018-09-22T12:42:10.908Z,16.50
2018-09-22T12:44:39.271Z,16.40
2018-09-22T12:47:08.415Z,16.40
2018-09-22T12:49:36.914Z,16.30
2018-09-22T12:52:05.415Z,16.30
2018-09-22T12:54:33.942Z,16.30
2018-09-22T12:57:02.516Z,16.30
2018-09-22T12:59:31.501Z,16.30
2018-09-22T13:02:00.159Z,16.30
2018-09-22T13:04:29.865Z,16.20
2018-09-22T13:06:58.471Z,16.20
2018-09-22T13:09:26.865Z,16.20
2018-09-22T13:11:55.262Z,16.20
2018-09-22T13:14:23.560Z,16.10
2018-09-22T13:16:51.946Z,16.10
2018-09-22T13:19:20.294Z,16.10
2018-09-22T13:21:48.818Z,16.10
2018-09-22T13:24:17.211Z,16.10
2018-09-22T13:26:45.576Z,16.10
2018-09-22T13:29:13.915Z,16.00
2018-09-22T13:31:42.529Z,16.00
2018-09-22T13:34:11.093Z,16.00
2018-09-22T13:36:39.705Z,16.00
2018-09-22T13:39:10.909Z,16.10
2018-09-22T13:41:39.326Z,16.10
2018-09-22T13:44:08.273Z,16.10
2018-09-22T13:46:36.730Z,16.10
2018-09-22T13:49:05.215Z,16.10
2018-09-22T13:51:34.968Z,16.10
2018-09-22T13:54:03.401Z,16.10
2018-09-22T13:56:31.745Z,16.10
2018-09-22T13:59:02.809Z,16.10
2018-09-22T14:01:31.404Z,16.00
2018-09-22T14:04:00.158Z,16.00
2018-09-22T14:06:29.135Z,16.00
2018-09-22T14:08:57.481Z,16.00
2018-09-22T14:11:26.432Z,16.00
2018-09-22T14:13:54.917Z,16.00
2018-09-22T14:16:23.453Z,15.90
2018-09-22T14:18:51.836Z,15.90
2018-09-22T14:21:20.469Z,15.90
2018-09-22T14:23:48.869Z,15.80
2018-09-22T14:26:17.279Z,15.80
2018-09-22T14:28:45.702Z,15.80
2018-09-22T14:31:14.137Z,15.80
2018-09-22T14:33:42.440Z,15.70
2018-09-22T14:36:10.751Z,15.80
2018-09-22T14:38:39.074Z,15.80
2018-09-22T14:41:07.470Z,15.70
2018-09-22T14:43:35.989Z,15.70
2018-09-22T14:46:05.554Z,15.70
2018-09-22T14:48:34.269Z,15.70
2018-09-22T14:51:03.243Z,15.60
2018-09-22T14:53:31.643Z,15.60
2018-09-22T14:56:00.126Z,15.70
2018-09-22T14:58:28.609Z,15.70
2018-09-22T15:00:57.035Z,15.70
2018-09-22T15:03:25.664Z,15.70
2018-09-22T15:05:54.473Z,15.60
2018-09-22T15:08:22.803Z,15.60
2018-09-22T15:10:51.122Z,15.60
2018-09-22T15:13:19.424Z,15.60
2018-09-22T15:15:48.065Z,15.60
2018-09-22T15:18:16.389Z,15.60
2018-09-22T15:20:44.753Z,15.50
2018-09-22T15:23:13.512Z,15.50
2018-09-22T15:25:41.873Z,15.50
2018-09-22T15:28:10.217Z,15.50
2018-09-22T15:30:38.579Z,15.60
2018-09-22T15:33:06.898Z,15.50
2018-09-22T15:35:35.263Z,15.50
2018-09-22T15:38:03.679Z,15.50
2018-09-22T15:40:32.022Z,15.50
2018-09-22T15:43:00.385Z,15.50
2018-09-22T15:45:28.775Z,15.50
2018-09-22T15:47:57.767Z,15.50
2018-09-22T15:50:26.325Z,15.50
2018-09-22T15:52:54.717Z,15.50
2018-09-22T15:55:23.134Z,15.50
2018-09-22T15:57:51.725Z,15.50
2018-09-22T16:00:20.403Z,15.50
2018-09-22T16:02:48.889Z,15.50
2018-09-22T16:05:17.280Z,15.50
2018-09-22T16:07:45.913Z,15.50
2018-09-22T16:10:14.522Z,15.50
2018-09-22T16:12:42.996Z,15.50
2018-09-22T16:15:11.321Z,15.50
2018-09-22T16:17:39.734Z,15.50
2018-09-22T16:20:08.257Z,15.50
2018-09-22T16:22:36.775Z,15.50
2018-09-22T16:25:05.486Z,15.50
2018-09-22T16:27:34.375Z,15.40
2018-09-22T16:30:03.151Z,15.50
2018-09-22T16:32:31.874Z,15.40
2018-09-22T16:35:00.779Z,15.40
2018-09-22T16:37:30.052Z,15.40
2018-09-22T16:39:58.588Z,15.40
2018-09-22T16:42:27.114Z,15.40
2018-09-22T16:44:55.673Z,15.40
2018-09-22T16:47:24.237Z,15.40
2018-09-22T16:49:52.645Z,15.40
2018-09-22T16:52:20.991Z,15.30
2018-09-22T16:54:49.646Z,15.30
2018-09-22T16:57:18.370Z,15.30
2018-09-22T16:59:46.959Z,15.30
2018-09-22T17:02:15.618Z,15.30
2018-09-22T17:04:44.895Z,15.30
2018-09-22T17:07:13.269Z,15.30
2018-09-22T17:09:41.741Z,15.20
2018-09-22T17:12:10.139Z,15.20
2018-09-22T17:14:38.775Z,15.20
2018-09-22T17:17:07.468Z,15.20
2018-09-22T17:19:35.937Z,15.20
2018-09-22T17:22:04.393Z,15.20
2018-09-22T17:24:32.971Z,15.20
2018-09-22T17:27:01.531Z,15.20
2018-09-22T17:29:30.213Z,15.10
2018-09-22T17:31:58.926Z,15.10
2018-09-22T17:34:27.480Z,15.10
2018-09-22T17:36:55.995Z,15.10
2018-09-22T17:39:37.581Z,15.00
2018-09-22T17:42:06.419Z,15.00
2018-09-22T17:44:36.209Z,15.00
2018-09-22T17:47:05.959Z,15.00
2018-09-22T17:49:34.691Z,15.00
2018-09-22T17:52:03.066Z,15.00
2018-09-22T17:54:31.681Z,15.00
2018-09-22T17:57:00.609Z,14.90
2018-09-22T17:59:30.526Z,14.90
2018-09-22T18:01:59.694Z,14.90
2018-09-22T18:04:28.089Z,14.90
2018-09-22T18:06:56.508Z,14.90
2018-09-22T18:09:25.149Z,14.90
2018-09-22T18:11:54.032Z,14.80
2018-09-22T18:14:22.510Z,14.80
2018-09-22T18:16:51.204Z,14.80
2018-09-22T18:19:19.469Z,14.80
2018-09-22T18:21:47.845Z,14.80
2018-09-22T18:24:16.221Z,14.80
2018-09-22T18:26:44.778Z,14.80
2018-09-22T18:29:14.868Z,14.70
2018-09-22T18:31:43.567Z,14.70
2018-09-22T18:34:12.122Z,14.70
2018-09-22T18:36:40.534Z,14.70
2018-09-22T18:39:10.365Z,14.70
2018-09-22T18:41:38.797Z,14.70
2018-09-22T18:44:08.051Z,14.60
2018-09-22T18:46:37.164Z,14.60
2018-09-22T18:49:05.796Z,14.60
2018-09-22T18:51:34.198Z,14.60
2018-09-22T18:54:02.649Z,14.60
2018-09-22T18:56:31.015Z,14.60
2018-09-22T18:58:59.654Z,14.60
2018-09-22T19:01:28.049Z,14.60
2018-09-22T19:03:57.053Z,14.60
2018-09-22T19:06:26.238Z,14.60
2018-09-22T19:08:54.539Z,14.60
2018-09-22T19:11:22.957Z,14.60
2018-09-22T19:13:55.485Z,14.60
2018-09-22T19:16:28.337Z,14.50
2018-09-22T19:19:01.827Z,14.50
2018-09-22T19:21:35.386Z,14.50
2018-09-22T19:24:08.682Z,14.50
2018-09-22T19:26:38.896Z,14.50
2018-09-22T19:29:42.450Z,14.50
2018-09-22T19:32:16.545Z,14.50
2018-09-22T19:34:48.698Z,14.50
2018-09-22T19:37:22.612Z,14.50
2018-09-22T19:39:56.210Z,14.40
2018-09-22T19:42:32.331Z,14.40
2018-09-22T19:45:08.264Z,14.40
2018-09-22T19:47:41.918Z,14.40
2018-09-22T19:50:12.847Z,14.40
2018-09-22T19:52:45.205Z,14.40
2018-09-22T19:55:13.685Z,14.40
2018-09-22T19:57:42.353Z,14.40
2018-09-22T20:00:11.055Z,14.40
2018-09-22T20:02:40.118Z,14.40
2018-09-22T20:05:08.710Z,14.40
2018-09-22T20:07:37.365Z,14.40
2018-09-22T20:10:06.671Z,14.40
2018-09-22T20:12:35.235Z,14.40
2018-09-22T20:15:03.717Z,14.40
2018-09-22T20:17:32.851Z,14.40
2018-09-22T20:20:01.172Z,14.40
2018-09-22T20:22:29.772Z,14.40
2018-09-22T20:24:58.253Z,14.30
2018-09-22T20:27:26.704Z,14.30
2018-09-22T20:29:55.313Z,14.30
2018-09-22T20:32:23.799Z,14.30
2018-09-22T20:34:52.526Z,14.30
2018-09-22T20:37:20.904Z,14.30
2018-09-22T20:39:49.559Z,14.30
2018-09-22T20:42:18.256Z,14.30
2018-09-22T20:44:46.640Z,14.30
2018-09-22T20:47:15.084Z,14.30
2018-09-22T20:49:43.712Z,14.30
2018-09-22T20:52:12.212Z,14.30
2018-09-22T20:54:40.640Z,14.30
2018-09-22T20:57:10.349Z,14.30
2018-09-22T20:59:39.053Z,14.30
2018-09-22T21:02:07.719Z,14.30
2018-09-22T21:04:36.069Z,14.30
2018-09-22T21:07:04.576Z,14.30
2018-09-22T21:09:35.654Z,14.30
2018-09-22T21:12:04.238Z,14.30
2018-09-22T21:14:32.853Z,14.30
2018-09-22T21:17:01.388Z,14.20
2018-09-22T21:19:29.857Z,14.20
2018-09-22T21:21:58.395Z,14.20
2018-09-22T21:24:27.706Z,14.20
2018-09-22T21:26:56.238Z,14.20
2018-09-22T21:29:24.743Z,14.20
2018-09-22T21:31:53.421Z,14.20
2018-09-22T21:34:21.728Z,14.20
2018-09-22T21:36:50.440Z,14.20
2018-09-22T21:39:19.116Z,14.20
2018-09-22T21:41:48.786Z,14.20
2018-09-22T21:44:17.193Z,14.20
2018-09-22T21:46:45.868Z,14.10
2018-09-22T21:49:14.306Z,14.20
2018-09-22T21:51:43.847Z,14.10
2018-09-22T21:54:12.570Z,14.20
2018-09-22T21:56:41.527Z,14.20
2018-09-22T21:59:10.201Z,14.10
2018-09-22T22:01:40.975Z,14.10
2018-09-22T22:04:11.340Z,14.10
2018-09-22T22:06:40.166Z,14.10
2018-09-22T22:09:12.596Z,14.10
2018-09-22T22:11:41.605Z,14.10
2018-09-22T22:14:14.932Z,14.10
2018-09-22T22:16:43.809Z,14.10
2018-09-22T22:19:14.854Z,14.10
2018-09-22T22:21:45.079Z,14.10
2018-09-22T22:24:15.672Z,14.10
2018-09-22T22:26:44.776Z,14.10
2018-09-22T22:29:13.506Z,14.10
2018-09-22T22:31:42.419Z,14.10
2018-09-22T22:34:12.232Z,14.10
2018-09-22T22:36:42.469Z,14.10
2018-09-22T22:39:11.244Z,14.10
2018-09-22T22:41:40.934Z,14.10
2018-09-22T22:44:11.903Z,14.10
2018-09-22T22:46:43.050Z,14.00
2018-09-22T22:49:12.527Z,14.00
2018-09-22T22:51:43.371Z,14.00
2018-09-22T22:54:12.756Z,14.00
2018-09-22T22:56:42.728Z,14.00
2018-09-22T22:59:12.510Z,14.00
2018-09-22T23:01:41.604Z,14.00
2018-09-22T23:04:13.041Z,14.00
2018-09-22T23:06:42.474Z,14.00
2018-09-22T23:09:11.088Z,14.00
2018-09-22T23:11:41.587Z,14.00
2018-09-22T23:14:10.281Z,14.00
2018-09-22T23:16:39.875Z,14.00
2018-09-22T23:19:10.220Z,14.00
2018-09-22T23:21:40.149Z,14.00
2018-09-22T23:24:09.895Z,14.00
2018-09-22T23:26:40.161Z,14.00
2018-09-22T23:29:09.175Z,14.00
2018-09-22T23:31:39.265Z,14.00
2018-09-22T23:34:09.356Z,14.00
2018-09-22T23:36:38.242Z,14.00
2018-09-22T23:39:09.920Z,13.90
2018-09-22T23:41:39.290Z,13.90
2018-09-22T23:44:08.431Z,14.00
2018-09-22T23:46:39.893Z,14.00
2018-09-22T23:49:09.781Z,14.00
2018-09-22T23:51:38.939Z,14.00
2018-09-22T23:54:07.504Z,14.00
2018-09-22T23:56:37.658Z,14.00
2018-09-22T23:59:07.318Z,13.90
